Time;durP1;ratioP1;P1;durP2;ratioP2;P2;SDS_P1;SDS_P2;PMS_P1;PMS_P2;Temp;Humidity;BMP_temperature;BMP_pressure;BME280_temperature;BME280_humidity;BME280_pressure;Samples;Min_cycle;Max_cycle;Signal;HPM_P1;HPM_P2
2023/09/26 00:01:00;;;;;;;6.60;4.25;;;;;;;;;;5109926;28;20088;-52
2023/09/26 00:03:26;;;;;;;7.38;4.45;;;;;;;;;;5109731;28;20032;-55
2023/09/26 00:05:54;;;;;;;6.93;4.10;;;;;;;;;;5110806;28;20042;-52
2023/09/26 00:08:19;;;;;;;9.85;4.97;;;;;;;;;;5091785;28;20027;-51
2023/09/26 00:10:47;;;;;;;7.78;4.30;;;;;;;;;;5106930;28;20127;-53
2023/09/26 00:13:14;;;;;;;7.82;4.47;;;;;;;;;;5092854;28;20036;-54
2023/09/26 00:15:40;;;;;;;6.93;4.38;;;;;;;;;;5109198;28;20042;-54
2023/09/26 00:18:06;;;;;;;7.70;4.18;;;;;;;;;;5110231;28;20077;-53
2023/09/26 00:20:35;;;;;;;8.35;4.20;;;;;;;;;;5111824;28;20043;-54
2023/09/26 00:23:00;;;;;;;9.13;4.15;;;;;;;;;;5093986;28;20036;-54
2023/09/26 00:25:26;;;;;;;7.25;4.18;;;;;;;;;;5111774;28;20034;-54
2023/09/26 00:27:52;;;;;;;7.53;4.22;;;;;;;;;;5107274;28;20036;-50
2023/09/26 00:30:18;;;;;;;8.10;4.30;;;;;;;;;;5110981;28;20039;-53
2023/09/26 00:32:44;;;;;;;10.32;4.35;;;;;;;;;;5111520;28;20036;-55
2023/09/26 00:35:13;;;;;;;7.13;4.22;;;;;;;;;;5115137;28;20365;-52
2023/09/26 00:37:43;;;;;;;7.88;4.35;;;;;;;;;;5093733;28;20088;-55
2023/09/26 00:40:15;;;;;;;8.33;4.47;;;;;;;;;;5114667;28;20023;-56
2023/09/26 00:42:42;;;;;;;7.03;4.40;;;;;;;;;;5091938;28;20031;-55
2023/09/26 00:45:08;;;;;;;6.97;4.50;;;;;;;;;;5088936;28;20463;-54
2023/09/26 00:47:35;;;;;;;7.30;4.25;;;;;;;;;;5095836;28;20035;-56
2023/09/26 00:50:09;;;;;;;6.57;3.90;;;;;;;;;;5096011;28;20035;-55
2023/09/26 00:52:35;;;;;;;7.70;4.32;;;;;;;;;;5103666;28;20067;-56
2023/09/26 00:55:04;;;;;;;8.75;4.75;;;;;;;;;;5108211;28;20474;-54
2023/09/26 00:57:33;;;;;;;8.77;4.30;;;;;;;;;;5112096;28;20035;-54
2023/09/26 01:00:00;;;;;;;7.70;4.70;;;;;;;;;;5095376;28;20606;-56
2023/09/26 01:02:26;;;;;;;6.90;4.60;;;;;;;;;;5113791;28;20032;-55
2023/09/26 01:04:52;;;;;;;7.47;4.28;;;;;;;;;;5094865;28;20072;-59
2023/09/26 01:07:18;;;;;;;7.72;4.28;;;;;;;;;;5110131;28;20032;-52
2023/09/26 01:09:44;;;;;;;9.85;5.10;;;;;;;;;;5088570;28;20030;-51
2023/09/26 01:12:11;;;;;;;6.40;4.53;;;;;;;;;;5113982;28;20066;-53
2023/09/26 01:14:36;;;;;;;7.53;4.55;;;;;;;;;;5100351;28;20453;-56
2023/09/26 01:17:02;;;;;;;9.50;4.63;;;;;;;;;;5090826;28;20123;-56
2023/09/26 01:19:27;;;;;;;7.32;4.65;;;;;;;;;;5113231;28;20116;-56
2023/09/26 01:21:53;;;;;;;10.88;4.60;;;;;;;;;;5095453;28;20119;-51
2023/09/26 01:24:18;;;;;;;10.05;4.95;;;;;;;;;;5110478;28;20028;-55
2023/09/26 01:26:44;;;;;;;7.72;4.47;;;;;;;;;;5094634;28;20027;-54
2023/09/26 01:29:10;;;;;;;8.10;4.63;;;;;;;;;;5112412;28;20146;-52
2023/09/26 01:31:37;;;;;;;8.98;5.20;;;;;;;;;;5114456;28;20028;-56
2023/09/26 01:34:03;;;;;;;9.30;5.20;;;;;;;;;;5110760;28;20126;-55
2023/09/26 01:36:29;;;;;;;10.15;5.13;;;;;;;;;;5112628;28;20070;-53
2023/09/26 01:38:55;;;;;;;9.65;5.10;;;;;;;;;;5092818;28;20110;-56
2023/09/26 01:41:22;;;;;;;9.85;5.78;;;;;;;;;;5093678;28;20455;-52
2023/09/26 01:43:47;;;;;;;10.27;4.88;;;;;;;;;;5112841;28;20116;-54
2023/09/26 01:46:12;;;;;;;10.18;5.50;;;;;;;;;;5114485;28;20110;-54
2023/09/26 01:48:38;;;;;;;9.70;5.75;;;;;;;;;;5113299;28;20119;-56
2023/09/26 01:51:06;;;;;;;8.50;5.22;;;;;;;;;;5094374;28;20426;-56
2023/09/26 01:53:32;;;;;;;8.65;5.93;;;;;;;;;;5112130;28;20043;-56
2023/09/26 01:56:01;;;;;;;10.60;6.68;;;;;;;;;;5090655;28;20042;-56
2023/09/26 01:58:26;;;;;;;7.60;5.82;;;;;;;;;;5111069;28;20091;-55
2023/09/26 02:00:52;;;;;;;8.82;6.45;;;;;;;;;;5109181;28;20031;-55
2023/09/26 02:03:17;;;;;;;9.90;6.22;;;;;;;;;;5110948;28;20460;-54
2023/09/26 02:05:43;;;;;;;9.23;6.00;;;;;;;;;;5112766;28;20038;-54
2023/09/26 02:08:08;;;;;;;10.18;6.32;;;;;;;;;;5111037;28;20464;-54
2023/09/26 02:10:34;;;;;;;12.85;6.75;;;;;;;;;;5113430;28;20066;-53
2023/09/26 02:13:02;;;;;;;10.90;6.90;;;;;;;;;;5093424;28;20185;-55
2023/09/26 02:15:27;;;;;;;10.68;6.72;;;;;;;;;;5109534;28;20040;-54
2023/09/26 02:17:53;;;;;;;12.13;7.00;;;;;;;;;;5103464;28;20031;-56
2023/09/26 02:20:19;;;;;;;9.43;6.43;;;;;;;;;;5111976;28;20056;-55
2023/09/26 02:22:50;;;;;;;10.27;7.18;;;;;;;;;;5094577;28;20034;-55
2023/09/26 02:25:18;;;;;;;;;;;;;;;;;;5112241;28;20028;-55
2023/09/26 02:27:44;;;;;;;11.13;6.80;;;;;;;;;;5096586;28;19912;-57
2023/09/26 02:30:11;;;;;;;9.07;6.45;;;;;;;;;;5112744;28;20024;-53
2023/09/26 02:32:37;;;;;;;10.95;6.25;;;;;;;;;;5109874;28;20039;-55
2023/09/26 02:35:05;;;;;;;11.25;6.60;;;;;;;;;;5110158;28;20031;-55
2023/09/26 02:37:30;;;;;;;11.25;6.30;;;;;;;;;;5111092;28;20031;-55
2023/09/26 02:39:56;;;;;;;12.98;6.35;;;;;;;;;;5109400;28;20032;-55
2023/09/26 02:42:21;;;;;;;9.25;6.38;;;;;;;;;;5111415;28;20034;-57
2023/09/26 02:44:47;;;;;;;8.57;5.78;;;;;;;;;;5110103;28;20118;-56
2023/09/26 02:47:12;;;;;;;11.02;6.00;;;;;;;;;;5108472;28;20476;-57
2023/09/26 02:49:38;;;;;;;9.80;6.15;;;;;;;;;;5111124;28;20996;-57
2023/09/26 02:52:03;;;;;;;8.95;6.18;;;;;;;;;;5091582;28;20058;-56
2023/09/26 02:54:29;;;;;;;10.15;5.88;;;;;;;;;;5093257;28;20084;-56
2023/09/26 02:56:57;;;;;;;8.68;5.88;;;;;;;;;;5110167;28;20055;-57
2023/09/26 02:59:22;;;;;;;10.60;5.90;;;;;;;;;;5093999;28;20024;-57
2023/09/26 03:01:48;;;;;;;10.18;6.30;;;;;;;;;;5108884;28;20044;-56
2023/09/26 03:04:13;;;;;;;7.80;6.05;;;;;;;;;;5104872;28;20115;-56
2023/09/26 03:06:38;;;;;;;10.05;6.00;;;;;;;;;;5084088;28;20032;-53
2023/09/26 03:09:04;;;;;;;9.63;6.18;;;;;;;;;;5108782;28;20590;-57
2023/09/26 03:11:30;;;;;;;10.38;6.10;;;;;;;;;;5086256;28;20035;-55
2023/09/26 03:13:55;;;;;;;8.30;6.30;;;;;;;;;;5072470;28;20051;-53
2023/09/26 03:16:21;;;;;;;9.15;6.18;;;;;;;;;;5104517;28;20034;-56
2023/09/26 03:18:52;;;;;;;8.30;5.90;;;;;;;;;;5109112;28;20376;-55
2023/09/26 03:21:17;;;;;;;10.10;6.28;;;;;;;;;;5077634;28;20146;-55
2023/09/26 03:23:42;;;;;;;9.13;5.95;;;;;;;;;;5108545;28;20575;-52
2023/09/26 03:26:13;;;;;;;9.23;6.25;;;;;;;;;;5109703;28;20061;-55
2023/09/26 03:28:39;;;;;;;8.52;6.32;;;;;;;;;;5093467;28;20043;-54
2023/09/26 03:31:08;;;;;;;11.95;6.65;;;;;;;;;;5102271;28;20088;-56
2023/09/26 03:33:34;;;;;;;10.70;6.63;;;;;;;;;;5108346;28;20027;-55
2023/09/26 03:35:59;;;;;;;8.68;6.22;;;;;;;;;;5103724;28;20046;-58
2023/09/26 03:38:25;;;;;;;8.10;6.10;;;;;;;;;;5108529;28;20035;-57
2023/09/26 03:41:17;;;;;;;8.65;6.18;;;;;;;;;;5096017;28;20028;-54
2023/09/26 03:43:42;;;;;;;12.25;7.07;;;;;;;;;;5089548;28;20048;-55
2023/09/26 03:46:11;;;;;;;10.02;6.35;;;;;;;;;;5110241;28;20019;-57
2023/09/26 03:48:36;;;;;;;10.48;6.43;;;;;;;;;;5110661;28;20035;-56
2023/09/26 03:51:13;;;;;;;9.65;6.45;;;;;;;;;;5110475;28;20028;-56
2023/09/26 03:53:39;;;;;;;9.55;5.93;;;;;;;;;;5110583;28;20047;-53
2023/09/26 03:56:05;;;;;;;10.75;6.70;;;;;;;;;;5108956;28;20039;-53
2023/09/26 03:58:31;;;;;;;10.35;6.32;;;;;;;;;;5109087;28;20033;-56
2023/09/26 04:01:14;;;;;;;11.57;6.55;;;;;;;;;;5108131;28;20088;-53
2023/09/26 04:03:42;;;;;;;10.52;6.43;;;;;;;;;;5114187;28;20110;-56
2023/09/26 04:06:09;;;;;;;9.52;6.80;;;;;;;;;;5112097;28;20160;-57
2023/09/26 04:08:34;;;;;;;11.05;6.93;;;;;;;;;;5114002;28;20468;-54
2023/09/26 04:11:00;;;;;;;9.50;6.65;;;;;;;;;;5113971;28;20039;-57
2023/09/26 04:13:25;;;;;;;11.40;6.70;;;;;;;;;;5096968;28;20035;-58
2023/09/26 04:15:54;;;;;;;10.55;6.93;;;;;;;;;;5094544;28;20109;-56
2023/09/26 04:18:22;;;;;;;10.80;7.00;;;;;;;;;;5114491;28;20095;-53
2023/09/26 04:20:49;;;;;;;10.35;6.93;;;;;;;;;;5113838;28;20097;-57
2023/09/26 04:23:15;;;;;;;10.55;6.70;;;;;;;;;;5113871;28;20036;-56
2023/09/26 04:25:40;;;;;;;8.80;6.60;;;;;;;;;;5115997;28;20027;-56
2023/09/26 04:28:06;;;;;;;10.90;7.15;;;;;;;;;;5112900;28;20429;-56
2023/09/26 04:30:39;;;;;;;12.30;7.35;;;;;;;;;;5115146;28;20067;-55
2023/09/26 04:33:06;;;;;;;12.85;7.20;;;;;;;;;;5111462;28;20035;-57
2023/09/26 04:35:31;;;;;;;15.13;7.65;;;;;;;;;;5112265;28;20038;-54
2023/09/26 04:37:57;;;;;;;10.30;7.45;;;;;;;;;;5113537;28;20428;-54
2023/09/26 04:40:22;;;;;;;11.43;7.03;;;;;;;;;;5113968;28;20038;-54
2023/09/26 04:42:48;;;;;;;11.93;7.65;;;;;;;;;;5113814;28;20027;-54
2023/09/26 04:45:16;;;;;;;11.98;6.93;;;;;;;;;;5113886;28;20035;-56
2023/09/26 04:47:42;;;;;;;10.77;7.43;;;;;;;;;;5114701;28;20028;-56
2023/09/26 04:50:08;;;;;;;10.18;6.97;;;;;;;;;;5095573;28;20042;-55
2023/09/26 04:52:34;;;;;;;11.57;6.97;;;;;;;;;;5114521;28;20036;-56
2023/09/26 04:54:59;;;;;;;11.98;7.70;;;;;;;;;;5112895;28;20096;-55
2023/09/26 04:57:25;;;;;;;10.45;7.63;;;;;;;;;;5113003;28;20031;-56
2023/09/26 04:59:50;;;;;;;11.48;7.30;;;;;;;;;;5114958;28;20038;-56
2023/09/26 05:02:16;;;;;;;11.85;7.57;;;;;;;;;;5111586;28;20040;-57
2023/09/26 05:04:41;;;;;;;11.88;7.40;;;;;;;;;;5111373;28;20038;-55
2023/09/26 05:07:09;;;;;;;9.82;6.75;;;;;;;;;;5092333;28;20032;-57
2023/09/26 05:09:37;;;;;;;12.95;7.72;;;;;;;;;;5092766;28;20032;-54
2023/09/26 05:12:02;;;;;;;11.40;7.50;;;;;;;;;;5098182;28;20026;-57
2023/09/26 05:14:28;;;;;;;12.65;7.05;;;;;;;;;;5113978;28;20086;-56
2023/09/26 05:16:53;;;;;;;12.40;8.13;;;;;;;;;;5109664;28;20040;-57
2023/09/26 05:19:18;;;;;;;11.98;7.82;;;;;;;;;;5094989;28;20419;-57
2023/09/26 05:21:44;;;;;;;10.68;7.53;;;;;;;;;;5112617;28;20040;-57
2023/09/26 05:24:09;;;;;;;14.60;7.38;;;;;;;;;;5112441;28;20472;-57
2023/09/26 05:26:35;;;;;;;10.98;7.47;;;;;;;;;;5113042;28;20036;-56
2023/09/26 05:29:01;;;;;;;13.68;8.15;;;;;;;;;;5094760;28;20151;-57
2023/09/26 05:31:30;;;;;;;12.48;8.05;;;;;;;;;;5115007;28;20456;-56
2023/09/26 05:33:56;;;;;;;11.90;7.97;;;;;;;;;;5110697;28;20034;-54
2023/09/26 05:36:22;;;;;;;13.23;8.10;;;;;;;;;;5110740;28;20032;-56
2023/09/26 05:38:47;;;;;;;13.05;8.32;;;;;;;;;;5094712;28;20031;-54
2023/09/26 05:41:13;;;;;;;12.70;8.13;;;;;;;;;;5111142;28;20372;-58
2023/09/26 05:43:38;;;;;;;16.45;8.23;;;;;;;;;;5096260;28;20179;-56
2023/09/26 05:46:04;;;;;;;14.18;8.43;;;;;;;;;;5113485;28;20373;-59
2023/09/26 05:48:30;;;;;;;13.02;8.38;;;;;;;;;;5114303;28;20396;-56
2023/09/26 05:51:05;;;;;;;14.10;8.52;;;;;;;;;;5114022;28;20038;-57
2023/09/26 05:53:31;;;;;;;13.40;8.48;;;;;;;;;;5114057;28;20031;-56
2023/09/26 05:55:56;;;;;;;15.18;8.52;;;;;;;;;;5113081;28;20039;-57
2023/09/26 05:58:22;;;;;;;13.35;8.52;;;;;;;;;;5093631;28;20103;-56
2023/09/26 06:00:48;;;;;;;14.27;8.75;;;;;;;;;;5113968;28;20110;-52
2023/09/26 06:03:14;;;;;;;16.23;8.80;;;;;;;;;;5110758;28;20028;-58
2023/09/26 06:05:40;;;;;;;13.75;8.25;;;;;;;;;;5095758;28;20028;-55
2023/09/26 06:08:06;;;;;;;15.77;8.85;;;;;;;;;;5110622;28;20034;-56
2023/09/26 06:10:31;;;;;;;13.05;8.50;;;;;;;;;;5114006;28;20059;-57
2023/09/26 06:12:57;;;;;;;13.32;8.60;;;;;;;;;;5111435;28;20495;-55
2023/09/26 06:15:22;;;;;;;17.27;9.00;;;;;;;;;;5113215;28;20027;-56
2023/09/26 06:17:48;;;;;;;20.27;9.60;;;;;;;;;;5112151;28;20035;-54
2023/09/26 06:20:13;;;;;;;18.42;10.32;;;;;;;;;;5112689;28;20063;-59
2023/09/26 06:22:39;;;;;;;14.30;9.60;;;;;;;;;;5107613;28;20111;-58
2023/09/26 06:25:05;;;;;;;15.13;9.18;;;;;;;;;;5099396;28;20031;-56
2023/09/26 06:27:35;;;;;;;13.77;9.70;;;;;;;;;;5111510;28;20039;-62
2023/09/26 06:30:01;;;;;;;14.80;9.23;;;;;;;;;;5094611;28;20035;-57
2023/09/26 06:32:27;;;;;;;16.60;9.20;;;;;;;;;;5110750;28;20737;-56
2023/09/26 06:34:57;;;;;;;13.05;8.73;;;;;;;;;;5115014;28;20495;-57
2023/09/26 06:37:23;;;;;;;14.82;9.30;;;;;;;;;;5112064;28;20448;-55
2023/09/26 06:39:48;;;;;;;14.77;8.75;;;;;;;;;;5112072;28;20027;-57
2023/09/26 06:42:14;;;;;;;12.50;8.95;;;;;;;;;;5111790;28;20032;-53
2023/09/26 06:44:39;;;;;;;14.27;9.30;;;;;;;;;;5111683;28;20464;-57
2023/09/26 06:47:04;;;;;;;14.07;8.95;;;;;;;;;;5092311;28;20035;-62
2023/09/26 06:49:31;;;;;;;13.93;8.57;;;;;;;;;;5094144;28;20118;-56
2023/09/26 06:51:57;;;;;;;13.35;9.27;;;;;;;;;;5094080;28;20143;-56
2023/09/26 06:54:23;;;;;;;13.20;8.82;;;;;;;;;;5111822;28;20536;-53
2023/09/26 06:56:48;;;;;;;16.73;9.18;;;;;;;;;;5093478;28;20404;-56
2023/09/26 06:59:14;;;;;;;16.38;9.10;;;;;;;;;;5110566;28;20035;-54
2023/09/26 07:01:39;;;;;;;14.32;8.68;;;;;;;;;;5110094;28;20037;-58
2023/09/26 07:04:05;;;;;;;14.45;9.18;;;;;;;;;;5109187;28;20023;-55
2023/09/26 07:06:31;;;;;;;12.18;7.90;;;;;;;;;;5093717;28;20043;-52
2023/09/26 07:08:57;;;;;;;11.20;8.02;;;;;;;;;;5094058;28;20053;-57
2023/09/26 07:11:23;;;;;;;11.98;7.88;;;;;;;;;;5111265;28;20035;-55
2023/09/26 07:13:48;;;;;;;12.32;7.60;;;;;;;;;;5111230;28;20387;-56
2023/09/26 07:16:14;;;;;;;10.88;7.20;;;;;;;;;;5111855;28;20030;-54
2023/09/26 07:18:39;;;;;;;10.73;7.30;;;;;;;;;;5109701;28;20114;-54
2023/09/26 07:21:06;;;;;;;11.20;6.57;;;;;;;;;;5108921;28;20407;-54
2023/09/26 07:23:36;;;;;;;12.50;6.78;;;;;;;;;;5092268;28;20540;-56
2023/09/26 07:26:09;;;;;;;24.70;9.23;;;;;;;;;;5109235;28;20067;-56
2023/09/26 07:28:35;;;;;;;15.85;7.40;;;;;;;;;;5091996;28;20686;-56
2023/09/26 07:31:04;;;;;;;11.93;6.38;;;;;;;;;;5111661;28;20077;-55
2023/09/26 07:33:30;;;;;;;12.60;6.50;;;;;;;;;;5092273;28;20035;-57
2023/09/26 07:35:55;;;;;;;11.32;6.18;;;;;;;;;;5111524;28;20035;-56
2023/09/26 07:38:21;;;;;;;7.80;5.63;;;;;;;;;;5091815;28;20162;-54
2023/09/26 07:40:46;;;;;;;8.73;6.05;;;;;;;;;;5112489;28;20042;-56
2023/09/26 07:43:13;;;;;;;13.13;6.20;;;;;;;;;;5090624;28;20058;-55
2023/09/26 07:45:39;;;;;;;9.32;6.13;;;;;;;;;;5111173;28;20046;-55
2023/09/26 07:48:05;;;;;;;8.05;5.63;;;;;;;;;;5110859;28;20055;-55
2023/09/26 07:50:30;;;;;;;8.38;5.97;;;;;;;;;;5112065;28;20070;-54
2023/09/26 07:52:56;;;;;;;9.10;5.57;;;;;;;;;;5111734;28;20468;-57
2023/09/26 07:55:24;;;;;;;8.43;5.97;;;;;;;;;;5091724;28;20543;-55
2023/09/26 07:57:49;;;;;;;8.50;5.72;;;;;;;;;;5111414;28;20037;-54
2023/09/26 08:00:18;;;;;;;11.07;6.15;;;;;;;;;;5110384;28;20130;-57
2023/09/26 08:02:43;;;;;;;10.27;6.20;;;;;;;;;;5091407;28;20045;-56
2023/09/26 08:05:09;;;;;;;8.38;5.15;;;;;;;;;;5090100;28;20111;-56
2023/09/26 08:07:34;;;;;;;9.55;4.95;;;;;;;;;;5109817;28;20035;-58
2023/09/26 08:10:03;;;;;;;8.63;5.28;;;;;;;;;;5111249;28;20444;-57
2023/09/26 08:12:29;;;;;;;6.57;4.85;;;;;;;;;;5109939;28;20109;-56
2023/09/26 08:14:57;;;;;;;9.98;5.10;;;;;;;;;;5109852;28;20032;-56
2023/09/26 08:17:23;;;;;;;6.65;4.97;;;;;;;;;;5110416;28;20027;-55
2023/09/26 08:19:49;;;;;;;8.60;5.30;;;;;;;;;;5108771;28;20043;-55
2023/09/26 08:22:14;;;;;;;8.38;5.10;;;;;;;;;;5111383;28;20042;-55
2023/09/26 08:24:40;;;;;;;7.43;5.00;;;;;;;;;;5111314;28;20050;-56
2023/09/26 08:27:06;;;;;;;11.10;5.55;;;;;;;;;;5108789;28;20380;-56
2023/09/26 08:29:31;;;;;;;9.68;5.25;;;;;;;;;;5092848;28;20035;-60
2023/09/26 08:31:57;;;;;;;7.63;5.07;;;;;;;;;;5107805;28;20020;-53
2023/09/26 08:34:23;;;;;;;8.98;4.93;;;;;;;;;;5109800;28;20273;-55
2023/09/26 08:36:49;;;;;;;12.57;5.50;;;;;;;;;;5092053;28;20035;-58
2023/09/26 08:39:14;;;;;;;7.93;4.93;;;;;;;;;;5085881;28;20035;-56
2023/09/26 08:41:43;;;;;;;7.70;4.82;;;;;;;;;;5111149;28;20024;-56
2023/09/26 08:44:09;;;;;;;8.05;4.95;;;;;;;;;;5109796;28;20440;-55
2023/09/26 08:46:36;;;;;;;13.40;4.85;;;;;;;;;;5108533;28;20460;-56
2023/09/26 08:49:04;;;;;;;10.40;5.20;;;;;;;;;;5113213;28;20125;-53
2023/09/26 08:51:30;;;;;;;8.48;4.90;;;;;;;;;;5112934;28;20041;-54
2023/09/26 08:53:55;;;;;;;9.40;4.40;;;;;;;;;;5113373;28;20051;-57
2023/09/26 08:56:24;;;;;;;6.88;4.30;;;;;;;;;;5113228;28;20045;-56
2023/09/26 08:58:50;;;;;;;10.32;5.10;;;;;;;;;;5114286;28;20035;-56
2023/09/26 09:01:18;;;;;;;10.50;4.80;;;;;;;;;;5111678;28;20077;-54
2023/09/26 09:03:43;;;;;;;7.28;4.75;;;;;;;;;;5114192;28;20038;-56
2023/09/26 09:06:09;;;;;;;8.65;5.10;;;;;;;;;;5111529;28;20099;-57
2023/09/26 09:08:34;;;;;;;9.10;4.72;;;;;;;;;;5114882;28;20028;-56
2023/09/26 09:11:00;;;;;;;7.88;4.40;;;;;;;;;;5114332;28;20039;-56
2023/09/26 09:13:37;;;;;;;7.63;4.80;;;;;;;;;;5114127;28;20050;-54
2023/09/26 09:16:13;;;;;;;10.45;5.05;;;;;;;;;;5112673;28;20035;-56
2023/09/26 09:19:00;;;;;;;11.27;5.45;;;;;;;;;;5111054;28;20040;-57
2023/09/26 09:21:27;;;;;;;7.63;4.88;;;;;;;;;;5111958;28;20301;-55
2023/09/26 09:23:54;;;;;;;12.13;4.40;;;;;;;;;;5114633;28;20028;-53
2023/09/26 09:26:22;;;;;;;7.93;4.40;;;;;;;;;;5093662;28;20384;-54
2023/09/26 09:28:48;;;;;;;6.97;4.10;;;;;;;;;;5112644;28;20611;-56
2023/09/26 09:31:15;;;;;;;10.18;4.55;;;;;;;;;;5111009;28;20039;-56
2023/09/26 09:33:45;;;;;;;7.80;4.05;;;;;;;;;;5113055;28;20041;-57
2023/09/26 09:36:12;;;;;;;8.97;4.43;;;;;;;;;;5094076;28;20084;-55
2023/09/26 09:38:38;;;;;;;5.93;3.97;;;;;;;;;;5114038;28;20312;-56
2023/09/26 09:41:04;;;;;;;10.82;4.10;;;;;;;;;;5112101;28;20023;-56
2023/09/26 09:43:29;;;;;;;6.78;3.90;;;;;;;;;;5094795;28;20027;-55
2023/09/26 09:45:57;;;;;;;6.30;3.55;;;;;;;;;;5090041;28;20034;-57
2023/09/26 09:48:26;;;;;;;9.20;3.80;;;;;;;;;;5111738;28;20039;-57
2023/09/26 09:51:00;;;;;;;7.10;3.35;;;;;;;;;;5077611;28;20464;-56
2023/09/26 09:53:29;;;;;;;6.43;3.40;;;;;;;;;;5096186;28;20110;-54
2023/09/26 09:55:57;;;;;;;6.25;3.42;;;;;;;;;;5096248;28;20042;-56
2023/09/26 09:58:28;;;;;;;9.25;3.50;;;;;;;;;;5109513;28;20027;-56
2023/09/26 10:00:54;;;;;;;;;;;;;;;;;;5110914;28;20054;-55
2023/09/26 10:03:20;;;;;;;8.48;3.40;;;;;;;;;;5110543;28;19947;-55
2023/09/26 10:05:48;;;;;;;5.72;3.30;;;;;;;;;;5110705;28;20069;-55
2023/09/26 10:08:14;;;;;;;8.88;3.28;;;;;;;;;;5091093;28;20113;-54
2023/09/26 10:10:41;;;;;;;6.53;3.03;;;;;;;;;;5096221;28;20373;-55
2023/09/26 10:13:07;;;;;;;4.68;3.10;;;;;;;;;;5112031;28;20445;-58
2023/09/26 10:16:07;;;;;;;9.30;3.30;;;;;;;;;;5111989;28;20058;-56
2023/09/26 10:18:37;;;;;;;3.95;2.53;;;;;;;;;;5092321;28;20035;-55
2023/09/26 10:21:03;;;;;;;5.03;2.60;;;;;;;;;;5093863;28;20047;-54
2023/09/26 10:23:28;;;;;;;5.88;2.90;;;;;;;;;;5111463;28;20458;-55
2023/09/26 10:25:54;;;;;;;6.07;3.00;;;;;;;;;;5095398;28;20027;-54
2023/09/26 10:28:20;;;;;;;5.32;2.60;;;;;;;;;;5110047;28;20434;-54
2023/09/26 10:30:45;;;;;;;3.97;2.60;;;;;;;;;;5093978;28;20031;-57
2023/09/26 10:33:13;;;;;;;4.28;2.42;;;;;;;;;;5110953;28;20042;-58
2023/09/26 10:35:43;;;;;;;5.60;2.75;;;;;;;;;;5094444;28;20092;-57
2023/09/26 10:38:19;;;;;;;5.90;2.65;;;;;;;;;;5094583;28;20126;-57
2023/09/26 10:40:46;;;;;;;3.45;2.30;;;;;;;;;;5095282;28;20118;-56
2023/09/26 10:43:15;;;;;;;5.00;2.42;;;;;;;;;;5109780;28;20480;-58
2023/09/26 10:45:45;;;;;;;4.53;2.40;;;;;;;;;;5109389;28;20080;-57
2023/09/26 10:48:17;;;;;;;3.53;2.25;;;;;;;;;;5094411;28;20088;-55
2023/09/26 10:50:42;;;;;;;4.35;2.63;;;;;;;;;;5112828;28;20482;-54
2023/09/26 10:53:08;;;;;;;4.03;2.58;;;;;;;;;;5112366;28;20042;-56
2023/09/26 10:55:34;;;;;;;3.58;2.20;;;;;;;;;;5091331;28;20032;-55
2023/09/26 10:58:00;;;;;;;5.63;2.50;;;;;;;;;;5112188;28;20030;-57
2023/09/26 11:00:25;;;;;;;3.75;2.50;;;;;;;;;;5108959;28;20042;-55
2023/09/26 11:02:51;;;;;;;4.57;2.40;;;;;;;;;;5111475;28;20106;-56
2023/09/26 11:05:17;;;;;;;3.22;2.38;;;;;;;;;;5093230;28;20058;-57
2023/09/26 11:07:46;;;;;;;3.38;2.30;;;;;;;;;;5111012;28;20084;-56
2023/09/26 11:10:13;;;;;;;4.00;2.30;;;;;;;;;;5093567;28;20031;-57
2023/09/26 11:12:43;;;;;;;6.43;2.50;;;;;;;;;;5111105;28;20031;-56
2023/09/26 11:15:09;;;;;;;3.97;2.70;;;;;;;;;;5111683;28;20031;-57
2023/09/26 11:17:38;;;;;;;6.15;2.70;;;;;;;;;;5110741;28;20244;-58
2023/09/26 11:20:06;;;;;;;4.45;2.55;;;;;;;;;;5092327;28;20441;-58
2023/09/26 11:22:54;;;;;;;3.53;2.47;;;;;;;;;;5092894;28;20035;-56
2023/09/26 11:25:19;;;;;;;3.35;2.65;;;;;;;;;;5110883;28;20436;-57
2023/09/26 11:27:46;;;;;;;4.65;2.88;;;;;;;;;;5110219;28;20138;-58
2023/09/26 11:30:17;;;;;;;6.68;2.80;;;;;;;;;;5112526;28;20051;-56
2023/09/26 11:32:43;;;;;;;;;;;;;;;;;;5110396;28;20031;-57
2023/09/26 11:35:09;;;;;;;4.53;2.75;;;;;;;;;;5108935;28;19919;-57
2023/09/26 11:37:37;;;;;;;3.88;2.88;;;;;;;;;;5108361;28;20148;-58
2023/09/26 11:40:06;;;;;;;5.45;3.10;;;;;;;;;;5111945;28;20038;-56
2023/09/26 11:42:51;;;;;;;4.90;3.35;;;;;;;;;;5110849;28;20096;-59
2023/09/26 11:45:21;;;;;;;4.50;3.60;;;;;;;;;;5108712;28;20038;-57
2023/09/26 11:47:47;;;;;;;4.68;3.55;;;;;;;;;;5093208;28;20099;-57
2023/09/26 11:50:15;;;;;;;3.88;3.53;;;;;;;;;;5093092;28;20038;-57
2023/09/26 11:52:42;;;;;;;5.00;4.50;;;;;;;;;;5110003;28;20066;-58
2023/09/26 11:55:08;;;;;;;5.80;3.90;;;;;;;;;;5110691;28;20051;-61
2023/09/26 11:57:39;;;;;;;6.00;4.20;;;;;;;;;;5110389;28;20043;-58
2023/09/26 12:00:11;;;;;;;5.25;4.28;;;;;;;;;;5091705;28;20063;-58
2023/09/26 12:02:38;;;;;;;4.82;4.32;;;;;;;;;;5106278;28;20487;-56
2023/09/26 12:05:07;;;;;;;5.30;4.68;;;;;;;;;;5093129;28;20036;-58
2023/09/26 12:07:33;;;;;;;6.03;4.65;;;;;;;;;;5109269;28;20038;-57
2023/09/26 12:09:58;;;;;;;5.70;4.60;;;;;;;;;;5110499;28;20054;-57
2023/09/26 12:12:24;;;;;;;5.22;4.50;;;;;;;;;;5092618;28;20403;-56
2023/09/26 12:14:51;;;;;;;5.45;4.68;;;;;;;;;;5110111;28;20035;-56
2023/09/26 12:17:17;;;;;;;4.93;4.53;;;;;;;;;;5111738;28;20055;-59
2023/09/26 12:19:42;;;;;;;5.90;4.80;;;;;;;;;;5108447;28;20066;-57
2023/09/26 12:22:08;;;;;;;5.30;4.80;;;;;;;;;;5093752;28;20122;-57
2023/09/26 12:24:33;;;;;;;5.40;4.90;;;;;;;;;;5112868;28;20028;-57
2023/09/26 12:26:59;;;;;;;5.38;4.88;;;;;;;;;;5113314;28;20492;-59
2023/09/26 12:29:24;;;;;;;5.93;5.00;;;;;;;;;;5094898;28;20023;-58
2023/09/26 12:31:50;;;;;;;5.75;5.18;;;;;;;;;;5097436;28;20032;-57
2023/09/26 12:34:15;;;;;;;5.72;5.10;;;;;;;;;;5114310;28;20036;-57
2023/09/26 12:36:41;;;;;;;5.38;4.88;;;;;;;;;;5114448;28;20035;-57
2023/09/26 12:39:09;;;;;;;5.70;5.20;;;;;;;;;;5112792;28;20487;-58
2023/09/26 12:41:35;;;;;;;5.63;5.03;;;;;;;;;;5113127;28;20027;-57
2023/09/26 12:44:03;;;;;;;5.90;5.30;;;;;;;;;;5114308;28;20383;-58
2023/09/26 12:46:29;;;;;;;6.13;5.22;;;;;;;;;;5112161;28;20031;-59
2023/09/26 12:48:54;;;;;;;6.10;5.60;;;;;;;;;;5112457;28;20042;-58
2023/09/26 12:51:20;;;;;;;5.85;5.30;;;;;;;;;;5114082;28;20084;-59
2023/09/26 12:53:47;;;;;;;8.30;4.75;;;;;;;;;;5114443;28;20059;-59
2023/09/26 12:56:12;;;;;;;6.22;4.82;;;;;;;;;;5112114;28;20051;-59
2023/09/26 12:58:38;;;;;;;5.20;4.75;;;;;;;;;;5113360;28;20703;-56
2023/09/26 13:01:04;;;;;;;6.28;5.10;;;;;;;;;;5096476;28;20039;-56
2023/09/26 13:03:29;;;;;;;5.60;5.10;;;;;;;;;;5096116;28;20042;-56
2023/09/26 13:05:55;;;;;;;6.30;5.20;;;;;;;;;;5112171;28;20038;-60
2023/09/26 13:08:20;;;;;;;5.72;5.13;;;;;;;;;;5113039;28;20039;-56
2023/09/26 13:10:46;;;;;;;6.72;5.18;;;;;;;;;;5113072;28;20122;-60
2023/09/26 13:13:11;;;;;;;5.65;5.15;;;;;;;;;;5112700;28;20031;-57
2023/09/26 13:15:37;;;;;;;7.40;5.00;;;;;;;;;;5111133;28;20032;-58
2023/09/26 13:18:02;;;;;;;5.65;5.10;;;;;;;;;;5112727;28;20032;-57
2023/09/26 13:20:28;;;;;;;6.13;5.00;;;;;;;;;;5090271;28;20070;-58
2023/09/26 13:22:53;;;;;;;5.85;5.25;;;;;;;;;;5093230;28;20038;-56
2023/09/26 13:25:18;;;;;;;5.47;4.97;;;;;;;;;;5091867;28;20469;-57
2023/09/26 13:27:44;;;;;;;9.80;5.30;;;;;;;;;;5092555;28;20063;-58
2023/09/26 13:30:10;;;;;;;5.80;5.30;;;;;;;;;;5092410;28;20120;-56
2023/09/26 13:32:35;;;;;;;6.07;5.40;;;;;;;;;;5090709;28;20388;-56
2023/09/26 13:35:04;;;;;;;5.53;5.10;;;;;;;;;;5090165;28;20028;-57
2023/09/26 13:37:31;;;;;;;5.78;5.18;;;;;;;;;;5091338;28;20039;-58
2023/09/26 13:39:56;;;;;;;5.65;5.15;;;;;;;;;;5093025;28;20032;-61
2023/09/26 13:42:21;;;;;;;6.03;5.40;;;;;;;;;;5093016;28;20062;-57
2023/09/26 13:44:47;;;;;;;5.50;5.10;;;;;;;;;;5093509;28;20024;-57
2023/09/26 13:47:12;;;;;;;6.50;5.28;;;;;;;;;;5092610;28;20385;-59
2023/09/26 13:49:38;;;;;;;8.30;5.32;;;;;;;;;;5091759;28;20040;-57
2023/09/26 13:52:04;;;;;;;7.05;5.38;;;;;;;;;;5093947;28;20039;-58
2023/09/26 13:54:30;;;;;;;5.72;5.22;;;;;;;;;;5091599;28;20036;-58
2023/09/26 13:56:55;;;;;;;5.90;5.25;;;;;;;;;;5091536;28;20101;-56
2023/09/26 13:59:21;;;;;;;5.90;5.35;;;;;;;;;;5092558;28;20036;-61
2023/09/26 14:01:46;;;;;;;6.22;5.63;;;;;;;;;;5087310;28;20043;-58
2023/09/26 14:04:11;;;;;;;6.68;6.07;;;;;;;;;;5093424;28;20527;-58
2023/09/26 14:06:37;;;;;;;6.47;5.70;;;;;;;;;;5092423;28;20081;-57
2023/09/26 14:09:08;;;;;;;5.80;5.30;;;;;;;;;;5091009;28;20089;-58
2023/09/26 14:11:34;;;;;;;6.90;5.68;;;;;;;;;;5090491;28;20433;-57
2023/09/26 14:13:59;;;;;;;6.05;5.55;;;;;;;;;;5091552;28;20126;-57
2023/09/26 14:16:24;;;;;;;5.90;5.40;;;;;;;;;;5093043;28;20028;-60
2023/09/26 14:18:50;;;;;;;7.03;6.43;;;;;;;;;;5090387;28;20023;-59
2023/09/26 14:21:17;;;;;;;6.47;5.60;;;;;;;;;;5105858;28;20116;-59
2023/09/26 14:23:43;;;;;;;5.90;5.40;;;;;;;;;;5093822;28;20280;-57
2023/09/26 14:26:10;;;;;;;6.90;6.20;;;;;;;;;;5112989;28;20484;-58
2023/09/26 14:28:35;;;;;;;6.07;5.50;;;;;;;;;;5109936;28;20123;-58
2023/09/26 14:31:01;;;;;;;5.88;5.30;;;;;;;;;;5113303;28;20107;-58
2023/09/26 14:33:26;;;;;;;6.45;5.80;;;;;;;;;;5092525;28;20521;-58
2023/09/26 14:35:52;;;;;;;6.95;5.68;;;;;;;;;;5111603;28;20161;-58